createdAt,value
2022-10-24T00:00:32.025Z,99655.78
2022-10-24T00:05:33.461Z,99654.56
2022-10-24T00:10:36.353Z,99649.50
2022-10-24T00:15:37.721Z,99649.38
2022-10-24T00:20:39.191Z,99660.13
2022-10-24T00:25:40.586Z,99673.75
2022-10-24T00:30:41.936Z,99671.50
2022-10-24T00:35:43.288Z,99660.13
2022-10-24T00:40:44.671Z,99661.56
2022-10-24T00:45:59.233Z,99658.34
2022-10-24T00:51:16.462Z,99660.50
2022-10-24T00:56:18.580Z,99660.38
2022-10-24T01:01:19.984Z,99662.16
2022-10-24T01:06:29.640Z,99665.34
2022-10-24T01:11:39.941Z,99654.94
2022-10-24T01:16:41.131Z,99646.16
2022-10-24T01:22:03.355Z,99657.19
2022-10-24T01:27:27.637Z,99662.38
2022-10-24T01:32:36.616Z,99655.97
2022-10-24T01:37:51.505Z,99648.41
2022-10-24T01:42:53.304Z,99635.41
2022-10-24T01:47:54.779Z,99633.16
2022-10-24T01:52:56.193Z,99628.75
2022-10-24T01:57:57.553Z,99624.81
2022-10-24T02:03:00.990Z,99616.31
2022-10-24T02:08:07.620Z,99617.84
2022-10-24T02:13:13.312Z,99617.50
2022-10-24T02:18:14.685Z,99609.31
2022-10-24T02:23:31.057Z,99613.31
2022-10-24T02:28:38.973Z,99612.03
2022-10-24T02:33:40.474Z,99593.41
2022-10-24T02:38:42.832Z,99576.38
2022-10-24T02:43:44.189Z,99571.44
2022-10-24T02:48:48.501Z,99588.75
2022-10-24T02:53:49.949Z,99585.66
2022-10-24T02:58:51.374Z,99578.06
2022-10-24T03:03:52.757Z,99592.41
2022-10-24T03:08:54.118Z,99592.13
2022-10-24T03:13:55.512Z,99608.69
2022-10-24T03:18:56.886Z,99607.81
2022-10-24T03:23:58.340Z,99597.25
2022-10-24T03:28:59.756Z,99605.44
2022-10-24T03:34:01.109Z,99602.34
2022-10-24T03:39:02.464Z,99609.00
2022-10-24T03:44:03.857Z,99610.97
2022-10-24T03:49:05.218Z,99624.72
2022-10-24T03:54:06.577Z,99615.25
2022-10-24T03:59:07.989Z,99618.81
2022-10-24T04:04:09.348Z,99613.97
2022-10-24T04:09:10.941Z,99620.13
2022-10-24T04:14:12.403Z,99613.94
2022-10-24T04:19:13.837Z,99620.00
2022-10-24T04:24:15.419Z,99614.66
2022-10-24T04:29:16.814Z,99623.06
2022-10-24T04:34:18.229Z,99629.56
2022-10-24T04:39:19.689Z,99624.97
2022-10-24T04:44:21.048Z,99616.31
2022-10-24T04:49:22.432Z,99611.22
2022-10-24T04:54:23.792Z,99612.25
2022-10-24T04:59:25.161Z,99617.69
2022-10-24T05:04:26.516Z,99611.91
2022-10-24T05:09:27.879Z,99618.28
2022-10-24T05:14:29.317Z,99619.47
2022-10-24T05:19:30.694Z,99618.78
2022-10-24T05:24:32.465Z,99619.69
2022-10-24T05:29:33.862Z,99625.84
2022-10-24T05:34:35.228Z,99622.41
2022-10-24T05:39:36.602Z,99604.28
2022-10-24T05:44:38.037Z,99599.44
2022-10-24T05:49:39.424Z,99627.88
2022-10-24T05:54:55.046Z,99639.47
2022-10-24T06:00:02.191Z,99630.22
2022-10-24T06:05:03.824Z,99640.28
2022-10-24T06:10:05.755Z,99638.28
2022-10-24T06:15:07.900Z,99631.78
2022-10-24T06:20:09.736Z,99644.78
2022-10-24T06:25:14.001Z,99647.16
2022-10-24T06:30:15.425Z,99643.25
2022-10-24T06:35:16.792Z,99657.81
2022-10-24T06:40:18.368Z,99645.03
2022-10-24T06:45:21.639Z,99657.47
2022-10-24T06:50:23.034Z,99655.34
2022-10-24T06:55:24.390Z,99663.25
2022-10-24T07:00:26.158Z,99664.00
2022-10-24T07:05:27.570Z,99672.06
2022-10-24T07:10:28.968Z,99673.69
2022-10-24T07:15:30.335Z,99668.72
2022-10-24T07:20:31.725Z,99669.44
2022-10-24T07:25:33.152Z,99671.44
2022-10-24T07:30:34.642Z,99663.75
2022-10-24T07:35:41.333Z,99672.38
2022-10-24T07:40:42.969Z,99665.13
2022-10-24T07:45:49.037Z,99677.00
2022-10-24T07:50:54.217Z,99670.13
2022-10-24T07:55:55.685Z,99674.41
2022-10-24T08:01:05.714Z,99660.41
2022-10-24T08:06:08.725Z,99666.00
2022-10-24T08:11:11.559Z,99659.84
2022-10-24T08:16:13.649Z,99671.88
2022-10-24T08:21:15.624Z,99660.31
2022-10-24T08:26:18.372Z,99662.66
2022-10-24T08:31:20.714Z,99667.66
2022-10-24T08:36:23.296Z,99668.22
2022-10-24T08:41:29.356Z,99664.09
2022-10-24T08:46:41.825Z,99671.56
2022-10-24T08:51:48.701Z,99666.00
2022-10-24T08:56:51.212Z,99667.53
2022-10-24T09:02:13.564Z,99667.66
2022-10-24T09:07:18.032Z,99658.66
2022-10-24T09:12:20.329Z,99660.88
2022-10-24T09:17:28.893Z,99659.00
2022-10-24T09:22:32.025Z,99647.72
2022-10-24T09:27:35.038Z,99642.50
2022-10-24T09:32:36.432Z,99646.78
2022-10-24T09:37:42.750Z,99646.03
2022-10-24T09:43:14.968Z,99640.16
2022-10-24T09:48:18.080Z,99654.38
2022-10-24T09:53:27.941Z,99663.88
2022-10-24T09:58:32.449Z,99658.03
2022-10-24T10:03:34.393Z,99660.31
2022-10-24T10:08:35.756Z,99647.63
2022-10-24T10:13:50.066Z,99642.06
2022-10-24T10:18:52.431Z,99636.00
2022-10-24T10:23:55.045Z,99626.97
2022-10-24T10:29:08.797Z,99618.13
2022-10-24T10:34:21.368Z,99625.38
2022-10-24T10:39:49.935Z,99628.75
2022-10-24T10:45:12.809Z,99621.06
2022-10-24T10:50:38.705Z,99611.84
2022-10-24T10:55:46.004Z,99619.31
2022-10-24T11:01:14.277Z,99596.22
2022-10-24T11:06:55.203Z,99582.00
2022-10-24T11:12:03.168Z,99551.78
2022-10-24T11:17:11.167Z,99570.03
2022-10-24T11:22:17.616Z,99548.81
2022-10-24T11:27:22.070Z,99574.16
2022-10-24T11:32:29.570Z,99567.66
2022-10-24T11:37:37.948Z,99596.72
2022-10-24T11:42:57.105Z,99577.91
2022-10-24T11:48:06.940Z,99572.28
2022-10-24T11:53:28.439Z,99571.31
2022-10-24T11:58:30.263Z,99596.06
2022-10-24T12:03:53.085Z,99603.25
2022-10-24T12:09:00.412Z,99586.47
2022-10-24T12:14:19.212Z,99562.53
2022-10-24T12:19:20.920Z,99586.72
2022-10-24T12:24:33.075Z,99613.50
2022-10-24T12:29:35.780Z,99611.94
2022-10-24T12:34:46.120Z,99597.25
2022-10-24T12:39:53.466Z,99608.38
2022-10-24T12:45:02.008Z,99604.84
2022-10-24T12:50:21.593Z,99593.34
2022-10-24T12:55:39.705Z,99581.84
2022-10-24T13:00:41.394Z,99580.19
2022-10-24T13:06:27.793Z,99570.47
2022-10-24T13:12:04.976Z,99565.84
2022-10-24T13:17:27.788Z,99568.56
2022-10-24T13:22:29.813Z,99560.63
2022-10-24T13:27:31.397Z,99567.47
2022-10-24T13:32:35.702Z,99565.38
2022-10-24T13:37:47.417Z,99575.91
2022-10-24T13:42:59.882Z,99592.28
2022-10-24T13:48:05.805Z,99591.22
2022-10-24T13:53:15.314Z,99602.59
2022-10-24T13:58:22.941Z,99609.53
2022-10-24T14:03:25.671Z,99603.03
2022-10-24T14:08:50.864Z,99611.22
2022-10-24T14:14:02.500Z,99614.66
2022-10-24T14:19:13.602Z,99600.53
2022-10-24T14:24:21.836Z,99605.50
2022-10-24T14:29:23.961Z,99610.28
2022-10-24T14:34:25.373Z,99609.47
2022-10-24T14:39:26.758Z,99613.03
2022-10-24T14:44:28.116Z,99623.53
2022-10-24T14:49:33.258Z,99619.22
2022-10-24T14:54:34.746Z,99624.00
2022-10-24T14:59:37.367Z,99631.44
2022-10-24T15:04:40.288Z,99631.09
2022-10-24T15:09:58.157Z,99628.97
2022-10-24T15:15:22.277Z,99629.31
2022-10-24T15:20:27.488Z,99632.41
2022-10-24T15:25:34.837Z,99633.25
2022-10-24T15:30:38.207Z,99644.84
2022-10-24T15:35:40.406Z,99650.88
2022-10-24T15:40:43.721Z,99660.13
2022-10-24T15:45:45.103Z,99661.69
2022-10-24T15:50:46.513Z,99668.78
2022-10-24T15:55:47.944Z,99668.06
2022-10-24T16:00:50.878Z,99664.03
2022-10-24T16:05:53.567Z,99670.09
2022-10-24T16:10:54.925Z,99663.59
2022-10-24T16:15:56.346Z,99654.81
2022-10-24T16:20:58.328Z,99669.38
2022-10-24T16:25:59.936Z,99671.81
2022-10-24T16:31:01.300Z,99667.22
2022-10-24T16:36:02.677Z,99664.75
2022-10-24T16:41:04.143Z,99652.41
2022-10-24T16:46:06.269Z,99658.56
2022-10-24T16:51:18.056Z,99679.91
2022-10-24T16:56:19.433Z,99675.75
2022-10-24T17:01:22.905Z,99672.25
2022-10-24T17:06:24.413Z,99666.78
2022-10-24T17:11:44.256Z,99670.41
2022-10-24T17:16:46.497Z,99663.28
2022-10-24T17:21:49.172Z,99665.28
2022-10-24T17:26:50.604Z,99662.09
2022-10-24T17:31:52.184Z,99657.94
2022-10-24T17:42:18.493Z,99666.50
2022-10-24T17:47:19.882Z,99660.81
2022-10-24T17:52:22.681Z,99664.03
2022-10-24T17:57:24.044Z,99658.31
2022-10-24T18:02:25.548Z,99664.13
2022-10-24T18:07:26.981Z,99677.66
2022-10-24T18:12:28.337Z,99681.69
2022-10-24T18:17:29.701Z,99689.47
2022-10-24T18:22:34.870Z,99694.09
2022-10-24T18:27:36.347Z,99690.81
2022-10-24T18:32:37.781Z,99691.63
2022-10-24T18:37:39.276Z,99698.25
2022-10-24T18:42:57.768Z,99694.59
2022-10-24T18:47:59.337Z,99689.28
2022-10-24T18:53:21.398Z,99709.53
2022-10-24T18:58:23.772Z,99704.34
2022-10-24T19:03:29.641Z,99693.66
2022-10-24T19:08:30.867Z,99683.00
2022-10-24T19:13:32.237Z,99695.81
2022-10-24T19:18:35.056Z,99696.16
2022-10-24T19:23:36.952Z,99695.56
2022-10-24T19:28:38.367Z,99707.63
2022-10-24T19:33:41.118Z,99702.81
2022-10-24T19:38:42.508Z,99712.66
2022-10-24T19:43:43.880Z,99711.47
2022-10-24T19:48:48.290Z,99712.78
2022-10-24T19:53:49.849Z,99713.69
2022-10-24T19:58:51.284Z,99717.38
2022-10-24T20:03:52.640Z,99707.09
2022-10-24T20:08:54.051Z,99714.34
2022-10-24T20:13:55.440Z,99712.78
2022-10-24T20:18:56.800Z,99713.50
2022-10-24T20:23:58.171Z,99726.03
2022-10-24T20:28:59.542Z,99721.44
2022-10-24T20:34:06.682Z,99725.25
2022-10-24T20:39:09.557Z,99723.31
2022-10-24T20:44:11.118Z,99728.78
2022-10-24T20:49:12.480Z,99729.59
2022-10-24T20:54:13.838Z,99726.31
2022-10-24T20:59:15.511Z,99736.94
2022-10-24T21:04:19.941Z,99732.34
2022-10-24T21:09:22.364Z,99727.81
2022-10-24T21:14:23.727Z,99736.72
2022-10-24T21:19:26.565Z,99743.13
2022-10-24T21:24:27.917Z,99750.13
2022-10-24T21:29:33.971Z,99738.88
2022-10-24T21:34:35.626Z,99740.50
2022-10-24T21:39:37.001Z,99741.81
2022-10-24T21:44:38.400Z,99751.78
2022-10-24T21:49:39.800Z,99749.41
2022-10-24T21:54:41.157Z,99736.28
2022-10-24T21:59:42.517Z,99753.69
2022-10-24T22:04:43.882Z,99754.97
2022-10-24T22:09:45.976Z,99750.72
2022-10-24T22:14:47.332Z,99743.25
2022-10-24T22:19:48.696Z,99757.22
2022-10-24T22:24:50.083Z,99750.59
2022-10-24T22:29:51.453Z,99745.50
2022-10-24T22:34:52.884Z,99753.44
2022-10-24T22:39:54.395Z,99762.09
2022-10-24T22:44:56.286Z,99766.13
2022-10-24T22:50:08.237Z,99769.09
2022-10-24T22:55:15.666Z,99771.22
2022-10-24T23:00:17.714Z,99770.41
2022-10-24T23:05:29.461Z,99776.44
2022-10-24T23:10:30.981Z,99770.41
2022-10-24T23:15:32.456Z,99784.59
2022-10-24T23:20:41.559Z,99789.25
2022-10-24T23:25:43.988Z,99794.56
2022-10-24T23:30:45.469Z,99809.00
2022-10-24T23:35:47.058Z,99821.94
2022-10-24T23:40:48.760Z,99812.56
2022-10-24T23:46:06.377Z,99811.28
2022-10-24T23:51:13.548Z,99820.03
2022-10-24T23:56:15.325Z,99808.78
